Time;durP1;ratioP1;P1;durP2;ratioP2;P2;SDS_P1;SDS_P2;PMS_P1;PMS_P2;Temp;Humidity;BMP_temperature;BMP_pressure;BME280_temperature;BME280_humidity;BME280_pressure;Samples;Min_cycle;Max_cycle;Signal;HPM_P1;HPM_P2
2020/12/18 09:57:34;;;;;;;32.15;13.23;;;10.10;99.90;;;;;;5115714;27;20336;-79
2020/12/18 10:00:02;;;;;;;21.10;11.90;;;10.30;99.90;;;;;;5100947;28;20027;-80
2020/12/18 10:02:29;;;;;;;23.20;12.15;;;10.50;99.90;;;;;;5067968;28;20041;-78
2020/12/18 10:04:56;;;;;;;24.77;12.48;;;10.60;99.90;;;;;;5066650;28;20025;-78
2020/12/18 10:07:22;;;;;;;23.60;12.20;;;10.80;99.90;;;;;;5058484;28;20522;-80
2020/12/18 10:09:47;;;;;;;21.67;11.82;;;10.90;99.90;;;;;;5068356;28;20606;-80
2020/12/18 10:12:31;;;;;;;23.48;12.60;;;11.00;99.90;;;;;;5061749;28;20076;-80
2020/12/18 10:14:57;;;;;;;22.50;11.95;;;11.00;99.90;;;;;;5072619;28;20090;-79
2020/12/18 10:17:23;;;;;;;29.67;12.68;;;11.20;99.90;;;;;;5072648;28;20449;-80
2020/12/18 10:19:49;;;;;;;20.48;11.85;;;11.20;99.90;;;;;;5064434;28;20292;-80
2020/12/18 10:22:14;;;;;;;20.30;11.93;;;11.30;99.90;;;;;;5065256;28;20498;-81
2020/12/18 10:24:40;;;;;;;22.55;12.20;;;11.30;99.90;;;;;;5067257;28;20091;-78
2020/12/18 10:27:05;;;;;;;23.98;12.50;;;11.30;99.90;;;;;;5066791;28;20039;-80
2020/12/18 10:29:31;;;;;;;20.77;13.02;;;11.40;99.90;;;;;;5075399;28;20075;-79
2020/12/18 10:31:57;;;;;;;21.92;12.73;;;11.40;99.90;;;;;;5071146;28;20025;-80
2020/12/18 10:34:25;;;;;;;24.08;12.95;;;11.40;99.90;;;;;;5079122;28;20033;-79
2020/12/18 10:36:53;;;;;;;22.50;12.70;;;11.40;99.90;;;;;;5076955;28;20032;-81
2020/12/18 10:39:19;;;;;;;21.63;12.98;;;11.40;99.90;;;;;;5071977;28;20028;-80
2020/12/18 10:41:45;;;;;;;21.58;13.48;;;11.40;99.90;;;;;;5078786;28;20372;-82
2020/12/18 10:44:11;;;;;;;23.20;13.30;;;11.50;99.90;;;;;;5064702;28;20060;-81
2020/12/18 10:46:38;;;;;;;21.17;12.20;;;11.50;99.90;;;;;;5067954;28;20033;-80
2020/12/18 10:49:03;;;;;;;21.70;12.23;;;11.50;99.90;;;;;;5064960;28;20117;-81
2020/12/18 10:51:29;;;;;;;22.90;12.60;;;11.50;99.90;;;;;;5050678;28;20108;-80
2020/12/18 10:53:55;;;;;;;19.38;12.25;;;11.60;99.90;;;;;;5051812;28;20068;-80
2020/12/18 10:56:21;;;;;;;18.35;11.73;;;11.60;99.90;;;;;;5048907;28;20067;-80
2020/12/18 10:58:46;;;;;;;22.40;12.57;;;11.70;99.90;;;;;;5053251;28;20044;-80
2020/12/18 11:01:17;;;;;;;21.02;12.18;;;11.60;99.90;;;;;;5057192;28;20415;-80
2020/12/18 11:03:44;;;;;;;18.10;11.60;;;11.70;99.90;;;;;;5053398;28;20394;-79
2020/12/18 11:06:09;;;;;;;21.63;11.98;;;11.70;99.90;;;;;;5045465;28;20282;-78
2020/12/18 11:19:58;;;;;;;21.42;11.07;;;11.50;99.90;;;;;;5130523;27;20320;-80
2020/12/18 11:25:06;;;;;;;14.73;10.43;;;11.50;99.90;;;;;;5143286;27;20330;-76
2020/12/18 11:27:32;;;;;;;17.52;10.77;;;11.60;99.90;;;;;;5137625;27;20023;-76
2020/12/18 11:29:58;;;;;;;16.48;10.50;;;11.60;99.90;;;;;;5138290;27;20068;-75
2020/12/18 11:32:23;;;;;;;17.33;10.93;;;11.60;99.90;;;;;;5097498;27;21290;-76
2020/12/18 11:34:49;;;;;;;15.65;9.80;;;11.70;99.90;;;;;;5091956;28;20028;-77
2020/12/18 11:37:15;;;;;;;15.63;9.55;;;11.70;99.90;;;;;;5093808;28;20035;-76
2020/12/18 11:39:41;;;;;;;19.10;9.80;;;11.70;99.90;;;;;;5093931;28;20040;-77
2020/12/18 11:58:00;;;;;;;14.55;8.75;;;11.70;99.90;;;;;;5105233;27;20347;-79
2020/12/18 12:00:26;;;;;;;14.23;8.85;;;11.70;99.90;;;;;;5078989;27;20028;-79
2020/12/18 12:02:53;;;;;;;17.15;8.90;;;11.80;99.90;;;;;;5065402;28;20116;-78
2020/12/18 12:05:20;;;;;;;13.10;8.32;;;11.90;99.90;;;;;;5059721;28;20032;-75
2020/12/18 12:07:47;;;;;;;15.02;8.02;;;11.90;99.90;;;;;;5060902;28;20068;-78
2020/12/18 12:10:14;;;;;;;12.52;7.70;;;12.00;99.90;;;;;;5080103;28;20044;-75
2020/12/18 12:12:39;;;;;;;11.27;7.75;;;12.00;99.90;;;;;;5063817;28;20541;-78
2020/12/18 12:15:06;;;;;;;16.02;8.90;;;12.10;99.90;;;;;;5060640;28;20107;-78
2020/12/18 12:17:32;;;;;;;14.63;7.40;;;12.10;99.90;;;;;;5063290;28;20029;-77
2020/12/18 12:19:58;;;;;;;17.63;7.82;;;12.10;99.90;;;;;;5062789;28;20151;-78
2020/12/18 12:22:24;;;;;;;14.43;7.00;;;12.20;99.90;;;;;;5063539;28;20025;-79
2020/12/18 12:24:54;;;;;;;10.55;6.35;;;12.30;99.90;;;;;;5063184;28;20104;-79
2020/12/18 12:27:21;;;;;;;9.75;6.35;;;12.30;99.90;;;;;;5065014;28;20116;-78
2020/12/18 12:29:47;;;;;;;10.85;6.20;;;12.30;99.90;;;;;;5061045;28;20438;-79
2020/12/18 12:32:13;;;;;;;8.63;5.95;;;12.40;99.90;;;;;;5065562;28;20128;-79
2020/12/18 12:34:39;;;;;;;10.15;6.13;;;12.50;99.90;;;;;;5062544;28;20500;-77
2020/12/18 12:37:05;;;;;;;9.80;5.82;;;12.50;99.90;;;;;;5062128;28;20090;-78
2020/12/18 12:39:30;;;;;;;10.77;5.57;;;12.50;99.90;;;;;;5063851;28;20023;-79
2020/12/18 12:41:56;;;;;;;7.63;5.05;;;12.60;99.90;;;;;;5062683;28;20097;-78
2020/12/18 12:44:22;;;;;;;9.85;5.80;;;12.50;99.90;;;;;;5061046;28;20021;-78
2020/12/18 12:46:47;;;;;;;10.43;6.03;;;12.60;99.90;;;;;;5061440;28;20040;-77
2020/12/18 12:49:13;;;;;;;10.18;5.78;;;12.70;99.90;;;;;;5056433;28;20092;-78
2020/12/18 12:51:39;;;;;;;9.80;5.18;;;12.80;99.90;;;;;;5060593;28;20033;-80
2020/12/18 12:54:05;;;;;;;9.48;6.07;;;12.80;99.90;;;;;;5053186;28;20060;-82
2020/12/18 12:56:30;;;;;;;8.60;5.53;;;12.80;99.90;;;;;;5053504;28;20480;-80
2020/12/18 12:58:56;;;;;;;11.25;5.38;;;13.00;99.90;;;;;;5057522;28;20032;-78
2020/12/18 13:01:22;;;;;;;11.05;5.45;;;13.00;99.90;;;;;;5051468;28;20071;-79
2020/12/18 13:03:47;;;;;;;9.60;4.93;;;13.10;99.90;;;;;;5052162;28;20024;-76
2020/12/18 13:06:23;;;;;;;10.70;5.28;;;13.10;99.90;;;;;;5055592;28;20036;-76
2020/12/18 13:08:49;;;;;;;9.68;5.00;;;13.20;99.90;;;;;;5043615;28;20036;-76
2020/12/18 13:11:14;;;;;;;7.05;4.57;;;13.20;99.90;;;;;;5040197;28;20125;-77
2020/12/18 13:13:40;;;;;;;7.32;4.93;;;13.30;99.90;;;;;;5045751;28;20115;-75
2020/12/18 13:16:06;;;;;;;7.53;4.75;;;13.40;99.90;;;;;;5039678;28;20057;-76
2020/12/18 13:18:32;;;;;;;10.02;5.22;;;13.40;99.90;;;;;;5039795;28;20025;-76
2020/12/18 13:20:58;;;;;;;10.40;5.35;;;13.40;99.90;;;;;;5045234;28;20032;-77
2020/12/18 13:23:23;;;;;;;9.40;5.30;;;13.50;99.90;;;;;;5040550;28;20079;-78
2020/12/18 13:25:49;;;;;;;9.20;5.10;;;13.50;99.90;;;;;;5038812;28;20116;-76
2020/12/18 13:28:14;;;;;;;10.93;4.68;;;13.50;99.90;;;;;;5037695;28;20488;-76
2020/12/18 13:30:40;;;;;;;5.07;3.70;;;13.50;99.90;;;;;;5041230;28;20065;-76
2020/12/18 13:33:06;;;;;;;4.93;3.15;;;13.50;99.90;;;;;;5042857;28;20038;-75
2020/12/18 13:35:33;;;;;;;7.80;4.18;;;13.50;99.90;;;;;;5043312;28;20391;-75
2020/12/18 13:38:00;;;;;;;7.35;3.38;;;13.50;99.90;;;;;;5041489;28;20032;-75
2020/12/18 13:40:25;;;;;;;8.00;3.60;;;13.50;99.90;;;;;;5038115;28;20024;-75
2020/12/18 13:42:51;;;;;;;6.10;3.60;;;13.50;99.90;;;;;;5038505;28;20040;-75
2020/12/18 13:45:17;;;;;;;5.38;3.35;;;13.50;99.90;;;;;;5037640;28;20260;-75
2020/12/18 13:47:44;;;;;;;6.35;3.40;;;13.50;99.90;;;;;;5042941;28;20032;-74
2020/12/18 13:50:11;;;;;;;5.20;3.35;;;13.50;99.90;;;;;;5037590;28;20383;-74
2020/12/18 13:52:37;;;;;;;4.82;3.20;;;13.40;99.90;;;;;;5037879;28;20036;-75
2020/12/18 13:55:03;;;;;;;5.32;3.00;;;13.40;99.90;;;;;;5048662;28;20344;-77
2020/12/18 13:57:29;;;;;;;3.78;2.90;;;13.10;99.90;;;;;;5040157;28;20045;-77
2020/12/18 13:59:56;;;;;;;4.90;2.83;;;13.10;99.90;;;;;;5039353;28;20021;-77
2020/12/18 14:02:21;;;;;;;4.15;3.00;;;12.90;99.90;;;;;;5039957;28;20151;-77
2020/12/18 14:04:47;;;;;;;7.60;2.75;;;12.90;99.90;;;;;;5037026;28;20096;-76
2020/12/18 14:07:14;;;;;;;9.20;3.47;;;12.70;99.90;;;;;;5038185;28;20040;-76
2020/12/18 14:09:39;;;;;;;9.45;4.90;;;12.70;99.90;;;;;;5040618;28;20028;-75
2020/12/18 14:12:05;;;;;;;9.10;4.90;;;12.80;99.90;;;;;;5045441;28;20029;-76
2020/12/18 14:14:30;;;;;;;9.07;4.53;;;12.90;99.90;;;;;;5037774;28;20052;-76
2020/12/18 14:16:56;;;;;;;8.75;4.22;;;12.90;99.90;;;;;;5043072;28;20044;-77
2020/12/18 14:19:22;;;;;;;5.43;3.88;;;13.00;99.90;;;;;;5041103;28;20494;-75
2020/12/18 14:21:51;;;;;;;7.03;3.70;;;12.90;99.90;;;;;;5045022;28;20079;-75
2020/12/18 14:24:18;;;;;;;9.02;3.70;;;12.90;99.90;;;;;;5042221;28;21126;-77
2020/12/18 14:26:43;;;;;;;6.13;3.70;;;12.90;99.90;;;;;;5044980;28;20187;-77
2020/12/18 14:29:09;;;;;;;6.03;3.97;;;12.70;99.90;;;;;;5041116;28;20528;-77
2020/12/18 14:31:34;;;;;;;7.50;4.10;;;12.60;99.90;;;;;;5043665;28;20111;-76
2020/12/18 14:34:00;;;;;;;9.57;4.60;;;12.70;99.90;;;;;;5038916;28;20060;-76
2020/12/18 14:36:26;;;;;;;9.77;4.63;;;12.70;99.90;;;;;;5041334;28;20043;-76
2020/12/18 14:38:51;;;;;;;12.38;5.10;;;12.70;99.90;;;;;;5036991;28;20021;-76
2020/12/18 14:41:17;;;;;;;8.35;4.80;;;12.70;99.90;;;;;;5040045;28;20033;-77
2020/12/18 14:43:44;;;;;;;10.00;4.43;;;12.40;99.90;;;;;;5042229;28;20021;-79
2020/12/18 14:46:09;;;;;;;7.05;4.75;;;12.40;99.90;;;;;;5042565;28;20374;-78
2020/12/18 14:48:35;;;;;;;8.43;5.10;;;12.50;99.90;;;;;;5041558;28;20480;-79
